createdAt,value
2022-09-30T00:01:51.915Z,1.00
2022-09-30T00:04:23.757Z,1.00
2022-09-30T00:06:55.476Z,1.00
2022-09-30T00:09:24.600Z,1.00
2022-09-30T00:11:55.418Z,1.00
2022-09-30T00:14:25.577Z,1.00
2022-09-30T00:16:54.491Z,1.00
2022-09-30T00:19:23.498Z,1.00
2022-09-30T00:21:52.570Z,1.00
2022-09-30T00:24:23.331Z,1.00
2022-09-30T00:26:57.644Z,1.00
2022-09-30T00:29:26.334Z,1.00
2022-09-30T00:31:55.283Z,1.00
2022-09-30T00:34:24.423Z,1.00
2022-09-30T00:36:55.686Z,1.00
2022-09-30T00:39:26.344Z,1.00
2022-09-30T00:42:00.122Z,1.00
2022-09-30T00:44:53.921Z,1.00
2022-09-30T00:47:47.918Z,1.00
2022-09-30T00:50:34.473Z,1.00
2022-09-30T00:53:10.076Z,1.00
2022-09-30T00:56:04.411Z,1.00
2022-09-30T00:58:54.274Z,1.00
2022-09-30T01:01:24.453Z,1.00
2022-09-30T01:04:01.433Z,1.00
2022-09-30T01:06:30.365Z,1.00
2022-09-30T01:08:59.882Z,1.00
2022-09-30T01:11:29.948Z,1.00
2022-09-30T01:14:06.440Z,1.00
2022-09-30T01:17:01.882Z,1.00
2022-09-30T01:20:06.501Z,1.00
2022-09-30T01:22:45.046Z,1.00
2022-09-30T01:25:49.641Z,1.00
2022-09-30T01:28:54.828Z,1.00
2022-09-30T01:31:46.320Z,1.00
2022-09-30T01:34:30.294Z,1.00
2022-09-30T01:37:09.455Z,1.00
2022-09-30T01:39:50.848Z,27.40
2022-09-30T01:42:29.712Z,1.00
2022-09-30T01:45:03.798Z,1.00
2022-09-30T01:47:39.001Z,1.00
2022-09-30T01:50:15.616Z,1.00
2022-09-30T01:52:50.730Z,1.00
2022-09-30T01:55:24.277Z,1.00
2022-09-30T01:57:58.824Z,1.00
2022-09-30T02:00:28.190Z,1.00
2022-09-30T02:03:01.785Z,1.00
2022-09-30T02:05:38.793Z,1.00
2022-09-30T02:08:11.750Z,1.00
2022-09-30T02:10:47.270Z,1.00
2022-09-30T02:13:21.422Z,1.00
2022-09-30T02:15:57.985Z,1.00
2022-09-30T02:18:33.262Z,1.00
2022-09-30T02:21:05.402Z,1.00
2022-09-30T02:23:39.034Z,1.00
2022-09-30T02:26:11.327Z,1.00
2022-09-30T02:28:43.725Z,1.00
2022-09-30T02:31:15.464Z,1.00
2022-09-30T02:33:51.889Z,1.00
2022-09-30T02:36:25.076Z,1.00
2022-09-30T02:39:01.202Z,1.00
2022-09-30T02:41:32.525Z,1.00
2022-09-30T02:44:04.165Z,1.00
2022-09-30T02:46:45.187Z,1.00
2022-09-30T02:49:22.263Z,11.70
2022-09-30T02:52:06.529Z,17.00
2022-09-30T02:54:43.557Z,71.80
2022-09-30T02:57:19.591Z,53.40
2022-09-30T02:59:51.578Z,99.90
2022-09-30T03:02:20.957Z,99.90
2022-09-30T03:04:52.088Z,99.90
2022-09-30T03:07:20.783Z,99.90
2022-09-30T03:09:49.650Z,99.90
2022-09-30T03:12:34.833Z,99.90
2022-09-30T03:15:32.632Z,99.90
2022-09-30T03:18:31.507Z,99.90
2022-09-30T03:21:10.165Z,99.90
2022-09-30T03:24:05.980Z,99.90
2022-09-30T03:26:42.405Z,99.90
2022-09-30T03:29:23.730Z,99.90
2022-09-30T03:32:04.238Z,99.90
2022-09-30T03:34:42.994Z,99.90
2022-09-30T03:37:22.042Z,99.90
2022-09-30T03:39:59.064Z,99.90
2022-09-30T03:42:34.703Z,99.90
2022-09-30T03:45:10.615Z,99.90
2022-09-30T03:47:45.110Z,99.90
2022-09-30T03:50:18.840Z,99.90
2022-09-30T03:52:49.818Z,99.90
2022-09-30T03:55:19.876Z,99.90
2022-09-30T03:57:49.763Z,99.90
2022-09-30T04:00:19.476Z,1.00
2022-09-30T04:02:48.529Z,1.00
2022-09-30T04:05:19.405Z,1.00
2022-09-30T04:07:49.797Z,1.00
2022-09-30T04:10:18.347Z,1.00
2022-09-30T04:12:46.987Z,1.00
2022-09-30T04:15:16.238Z,99.90
2022-09-30T04:17:47.787Z,1.00
2022-09-30T04:20:16.671Z,1.00
2022-09-30T04:22:45.499Z,1.00
2022-09-30T04:25:16.677Z,1.00
2022-09-30T04:27:45.308Z,1.00
2022-09-30T04:30:13.906Z,1.00
2022-09-30T04:32:45.766Z,1.00
2022-09-30T04:35:14.932Z,1.00
2022-09-30T04:37:45.897Z,1.00
2022-09-30T04:40:17.496Z,1.00
2022-09-30T04:42:47.907Z,1.00
2022-09-30T04:45:17.637Z,1.00
2022-09-30T04:47:46.490Z,18.90
2022-09-30T04:50:16.040Z,99.90
2022-09-30T04:52:45.053Z,97.70
2022-09-30T04:55:15.481Z,99.90
2022-09-30T04:57:46.531Z,99.90
2022-09-30T05:00:15.281Z,99.90
2022-09-30T05:02:45.586Z,99.90
2022-09-30T05:05:14.856Z,99.90
2022-09-30T05:07:43.733Z,99.90
2022-09-30T05:10:13.325Z,99.90
2022-09-30T05:12:44.300Z,99.90
2022-09-30T05:15:13.463Z,99.90
2022-09-30T05:17:42.769Z,99.90
2022-09-30T05:20:12.222Z,99.90
2022-09-30T05:22:40.908Z,99.90
2022-09-30T05:25:10.266Z,99.90
2022-09-30T05:27:39.211Z,99.90
2022-09-30T05:30:10.773Z,99.90
2022-09-30T05:32:40.085Z,99.90
2022-09-30T05:35:09.777Z,1.00
2022-09-30T05:37:38.947Z,1.00
2022-09-30T05:40:08.967Z,1.00
2022-09-30T05:42:37.732Z,3.40
2022-09-30T05:45:07.664Z,1.00
2022-09-30T05:47:39.693Z,1.00
2022-09-30T05:50:08.867Z,1.00
2022-09-30T05:52:37.628Z,1.00
2022-09-30T05:55:07.359Z,1.00
2022-09-30T05:57:36.480Z,99.90
2022-09-30T06:00:06.154Z,99.90
2022-09-30T06:02:38.757Z,99.90
2022-09-30T06:05:08.429Z,99.90
2022-09-30T06:07:38.464Z,99.90
2022-09-30T06:10:12.444Z,99.90
2022-09-30T06:12:41.507Z,99.90
2022-09-30T06:15:11.539Z,99.90
2022-09-30T06:17:42.801Z,99.90
2022-09-30T06:20:12.613Z,99.90
2022-09-30T06:22:44.207Z,99.90
2022-09-30T06:25:13.733Z,99.90
2022-09-30T06:27:46.589Z,91.40
2022-09-30T06:30:15.515Z,55.10
2022-09-30T06:32:46.154Z,1.00
2022-09-30T06:35:14.981Z,1.00
2022-09-30T06:37:43.652Z,1.00
2022-09-30T06:40:16.735Z,1.00
2022-09-30T06:42:45.712Z,1.00
2022-09-30T06:45:23.947Z,1.00
2022-09-30T06:48:04.979Z,1.00
2022-09-30T06:50:35.924Z,1.00
2022-09-30T06:53:07.103Z,99.90
2022-09-30T06:55:39.165Z,99.90
2022-09-30T06:58:11.502Z,1.00
2022-09-30T07:00:40.741Z,1.00
2022-09-30T07:03:24.788Z,1.00
2022-09-30T07:05:59.040Z,1.00
2022-09-30T07:08:31.673Z,1.00
2022-09-30T07:11:00.763Z,1.00
2022-09-30T07:13:29.802Z,1.00
2022-09-30T07:15:59.114Z,1.00
2022-09-30T07:18:31.143Z,1.00
2022-09-30T07:21:00.211Z,1.00
2022-09-30T07:23:29.047Z,1.00
2022-09-30T07:26:01.427Z,1.00
2022-09-30T07:28:35.126Z,1.00
2022-09-30T07:31:31.370Z,1.00
2022-09-30T07:34:04.608Z,1.00
2022-09-30T07:36:34.203Z,1.00
2022-09-30T07:39:07.250Z,1.00
2022-09-30T07:41:38.014Z,1.00
2022-09-30T07:44:09.197Z,1.00
2022-09-30T07:46:40.794Z,1.00
2022-09-30T07:49:15.566Z,1.00
2022-09-30T07:51:45.889Z,1.00
2022-09-30T07:54:17.242Z,1.00
2022-09-30T07:59:39.302Z,1.00
2022-09-30T08:02:10.997Z,1.00
2022-09-30T08:04:44.047Z,1.00
2022-09-30T08:07:14.677Z,1.00
2022-09-30T08:09:43.734Z,1.00
2022-09-30T08:12:12.591Z,1.00
2022-09-30T08:14:41.768Z,1.00
2022-09-30T08:17:10.523Z,1.00
2022-09-30T08:19:44.296Z,1.00
2022-09-30T08:22:14.348Z,1.00
2022-09-30T08:24:43.629Z,1.00
2022-09-30T08:27:12.996Z,1.00
2022-09-30T08:29:59.295Z,1.00
2022-09-30T08:32:32.105Z,1.00
2022-09-30T08:35:02.519Z,1.00
2022-09-30T08:37:32.410Z,1.00
2022-09-30T08:40:01.510Z,1.00
2022-09-30T08:42:52.894Z,1.00
2022-09-30T08:45:35.127Z,1.00
2022-09-30T08:50:55.457Z,1.00
2022-09-30T08:53:27.918Z,1.00
2022-09-30T08:56:02.515Z,1.00
2022-09-30T08:58:35.001Z,1.00
2022-09-30T09:01:08.700Z,1.00
2022-09-30T09:03:37.735Z,1.00
2022-09-30T09:06:31.292Z,1.00
2022-09-30T09:09:23.655Z,1.00
2022-09-30T09:12:06.712Z,1.00
2022-09-30T09:14:44.863Z,1.00
2022-09-30T09:17:28.098Z,1.00
2022-09-30T09:20:03.971Z,1.00
2022-09-30T09:22:34.881Z,1.00
2022-09-30T09:25:04.483Z,1.00
2022-09-30T09:27:45.116Z,1.00
2022-09-30T09:30:17.292Z,1.00
2022-09-30T09:32:52.907Z,1.00
2022-09-30T09:35:37.342Z,1.00
2022-09-30T09:38:33.344Z,1.00
2022-09-30T09:41:20.056Z,1.00
2022-09-30T09:44:00.732Z,1.00
2022-09-30T09:46:34.657Z,1.00
2022-09-30T09:49:31.474Z,1.00
2022-09-30T09:52:49.759Z,1.00
2022-09-30T09:55:24.180Z,1.00
2022-09-30T09:58:14.291Z,1.00
2022-09-30T10:01:00.577Z,1.00
2022-09-30T10:03:29.877Z,1.00
2022-09-30T10:06:07.435Z,1.00
2022-09-30T10:08:38.998Z,1.00
2022-09-30T10:11:22.862Z,1.00
2022-09-30T10:13:52.631Z,1.00
2022-09-30T10:16:33.188Z,1.00
2022-09-30T10:19:09.347Z,1.00
2022-09-30T10:21:39.010Z,1.00
2022-09-30T10:24:21.964Z,1.00
2022-09-30T10:26:52.585Z,1.00
2022-09-30T10:29:29.924Z,1.00
2022-09-30T10:32:01.309Z,1.00
2022-09-30T10:34:32.260Z,1.00
2022-09-30T10:37:08.785Z,1.00
2022-09-30T10:39:39.407Z,1.00
2022-09-30T10:42:14.964Z,1.00
2022-09-30T10:44:53.418Z,1.00
2022-09-30T10:47:26.606Z,1.00
2022-09-30T10:49:59.848Z,1.00
2022-09-30T10:52:31.049Z,1.00
2022-09-30T10:55:01.079Z,1.00
2022-09-30T10:57:35.866Z,1.00
2022-09-30T11:00:08.339Z,1.00
2022-09-30T11:02:41.740Z,1.00
2022-09-30T11:05:19.749Z,1.00
2022-09-30T11:07:53.642Z,1.00
2022-09-30T11:10:41.347Z,1.00
2022-09-30T11:13:17.705Z,1.00
2022-09-30T11:15:55.996Z,1.00
2022-09-30T11:18:31.868Z,1.00
2022-09-30T11:21:09.429Z,1.00
2022-09-30T11:23:46.342Z,1.00
2022-09-30T11:26:26.922Z,1.00
2022-09-30T11:29:10.096Z,1.00
2022-09-30T11:31:45.880Z,1.00
2022-09-30T11:34:33.713Z,1.00
2022-09-30T11:37:13.305Z,1.00
2022-09-30T11:39:57.066Z,1.00
2022-09-30T11:42:33.376Z,1.00
2022-09-30T11:45:13.204Z,1.00
2022-09-30T11:48:20.588Z,1.00
2022-09-30T11:51:00.817Z,1.00
2022-09-30T11:53:42.169Z,1.00
2022-09-30T11:56:37.251Z,1.00
2022-09-30T11:59:25.447Z,1.00
2022-09-30T12:02:02.872Z,1.00
2022-09-30T12:05:00.393Z,1.00
2022-09-30T12:07:45.264Z,1.00
2022-09-30T12:10:24.344Z,1.00
2022-09-30T12:13:04.804Z,1.00
2022-09-30T12:18:35.808Z,1.00
2022-09-30T12:21:19.259Z,1.00
2022-09-30T12:23:59.512Z,1.00
2022-09-30T12:26:31.749Z,1.00
2022-09-30T12:29:27.548Z,1.00
2022-09-30T12:35:43.335Z,1.00
2022-09-30T12:38:40.085Z,1.00
2022-09-30T12:41:31.203Z,1.00
2022-09-30T12:44:51.635Z,1.00
2022-09-30T12:47:47.718Z,1.00
2022-09-30T12:50:28.480Z,1.00
2022-09-30T12:53:00.553Z,1.00
2022-09-30T12:55:39.287Z,1.00
2022-09-30T12:58:18.095Z,1.00
2022-09-30T13:01:03.300Z,1.00
2022-09-30T13:03:49.506Z,1.00
2022-09-30T13:09:24.120Z,1.00
2022-09-30T13:12:19.006Z,1.00
2022-09-30T13:14:48.503Z,1.00
2022-09-30T13:17:36.719Z,1.00
2022-09-30T13:20:57.308Z,1.00
2022-09-30T13:23:50.579Z,1.00
2022-09-30T13:26:45.228Z,1.00
2022-09-30T13:29:40.519Z,1.00
2022-09-30T13:32:11.995Z,1.00
2022-09-30T13:35:00.718Z,1.00
2022-09-30T13:38:10.934Z,1.00
2022-09-30T13:41:04.531Z,1.00
2022-09-30T13:43:39.882Z,1.00
2022-09-30T13:46:14.512Z,1.00
2022-09-30T13:48:51.849Z,1.00
2022-09-30T13:51:26.775Z,1.00
2022-09-30T13:54:04.844Z,1.00
2022-09-30T13:56:49.542Z,1.00
2022-09-30T13:59:42.323Z,1.00
2022-09-30T14:03:05.869Z,1.00
2022-09-30T14:05:56.404Z,1.00
2022-09-30T14:08:56.461Z,1.00
2022-09-30T14:11:51.224Z,1.00
2022-09-30T14:14:38.328Z,1.00
2022-09-30T14:17:30.768Z,1.00
2022-09-30T14:20:31.679Z,1.00
2022-09-30T14:23:00.920Z,1.00
2022-09-30T14:25:35.272Z,1.00
2022-09-30T14:28:09.044Z,1.00
2022-09-30T14:30:42.292Z,1.00
2022-09-30T14:33:24.292Z,1.00
2022-09-30T14:35:55.706Z,1.00
2022-09-30T14:38:28.641Z,1.00
2022-09-30T14:41:06.531Z,1.00
2022-09-30T14:43:42.927Z,1.00
2022-09-30T14:46:25.510Z,1.00
2022-09-30T14:48:59.498Z,1.00
2022-09-30T14:51:37.126Z,1.00
2022-09-30T14:54:07.574Z,1.00
2022-09-30T14:56:39.389Z,1.00
2022-09-30T14:59:20.155Z,1.00
2022-09-30T15:01:51.695Z,1.00
2022-09-30T15:04:26.324Z,1.00
2022-09-30T15:06:57.036Z,1.00
2022-09-30T15:09:32.940Z,1.00
2022-09-30T15:12:07.460Z,1.00
2022-09-30T15:14:48.740Z,1.00
2022-09-30T15:17:21.198Z,1.00
2022-09-30T15:19:52.244Z,1.00
2022-09-30T15:22:22.509Z,1.00
2022-09-30T15:24:53.136Z,1.00
2022-09-30T15:27:25.833Z,1.00
2022-09-30T15:30:02.759Z,1.00
2022-09-30T15:32:34.911Z,1.00
2022-09-30T15:35:07.515Z,1.00
2022-09-30T15:37:36.834Z,1.00
2022-09-30T15:40:32.163Z,1.00
2022-09-30T15:43:04.767Z,1.00
2022-09-30T15:45:40.132Z,1.00
2022-09-30T15:48:30.643Z,1.00
2022-09-30T15:51:02.385Z,1.00
2022-09-30T15:53:50.391Z,1.00
2022-09-30T15:56:28.673Z,1.00
2022-09-30T15:58:59.308Z,1.00
2022-09-30T16:01:38.778Z,1.00
2022-09-30T16:04:11.904Z,1.00
2022-09-30T16:06:48.976Z,1.00
2022-09-30T16:09:31.614Z,1.00
2022-09-30T16:12:11.462Z,1.00
2022-09-30T16:14:49.202Z,1.00
2022-09-30T16:17:24.004Z,1.00
2022-09-30T16:19:54.220Z,1.00
2022-09-30T16:23:10.399Z,1.00
2022-09-30T16:25:39.266Z,1.00
2022-09-30T16:28:17.246Z,1.00
2022-09-30T16:30:51.088Z,1.00
2022-09-30T16:33:21.693Z,1.00
2022-09-30T16:35:50.629Z,1.00
2022-09-30T16:38:21.182Z,1.00
2022-09-30T16:40:51.912Z,1.00
2022-09-30T16:43:22.321Z,1.00
2022-09-30T16:45:54.421Z,1.00
2022-09-30T16:48:27.103Z,1.00
2022-09-30T16:51:03.814Z,1.00
2022-09-30T16:53:33.637Z,1.00
2022-09-30T16:56:03.071Z,1.00
2022-09-30T16:58:35.908Z,1.00
2022-09-30T17:01:05.295Z,1.00
2022-09-30T17:03:35.916Z,1.00
2022-09-30T17:06:05.981Z,1.00
2022-09-30T17:08:36.596Z,1.00
2022-09-30T17:11:05.952Z,1.00
2022-09-30T17:13:35.879Z,1.00
2022-09-30T17:16:05.028Z,1.00
2022-09-30T17:18:38.793Z,1.00
2022-09-30T17:21:08.338Z,1.00
2022-09-30T17:23:39.687Z,1.00
2022-09-30T17:26:09.952Z,1.00
2022-09-30T17:28:39.268Z,1.00
2022-09-30T17:31:12.160Z,1.00
2022-09-30T17:33:45.983Z,1.00
2022-09-30T17:36:16.463Z,1.00
2022-09-30T17:38:45.824Z,1.00
2022-09-30T17:41:34.353Z,1.00
2022-09-30T17:44:04.448Z,1.00
2022-09-30T17:46:44.690Z,1.00
2022-09-30T17:49:23.329Z,1.00
2022-09-30T17:51:53.226Z,1.00
2022-09-30T17:54:27.148Z,1.00
2022-09-30T17:56:57.557Z,1.00
2022-09-30T17:59:27.551Z,1.00
2022-09-30T18:02:00.273Z,1.00
2022-09-30T18:04:31.862Z,1.00
2022-09-30T18:07:03.270Z,1.00
2022-09-30T18:09:34.549Z,1.00
2022-09-30T18:12:17.885Z,1.00
2022-09-30T18:14:47.594Z,1.00
2022-09-30T18:17:31.942Z,1.00
2022-09-30T18:20:05.137Z,1.00
2022-09-30T18:22:35.456Z,1.00
2022-09-30T18:25:24.123Z,1.00
2022-09-30T18:27:55.176Z,1.00
2022-09-30T18:30:26.246Z,1.00
2022-09-30T18:32:57.881Z,1.00
2022-09-30T18:35:30.748Z,1.00
2022-09-30T18:38:02.180Z,1.00
2022-09-30T18:40:34.020Z,1.00
2022-09-30T18:43:05.794Z,1.00
2022-09-30T18:45:38.545Z,1.00
2022-09-30T18:48:08.962Z,1.00
2022-09-30T18:50:39.946Z,1.00
2022-09-30T18:53:10.219Z,1.00
2022-09-30T18:55:44.287Z,1.00
2022-09-30T18:58:13.488Z,1.00
2022-09-30T19:00:44.459Z,1.00
2022-09-30T19:03:20.082Z,1.00
2022-09-30T19:05:51.361Z,1.00
2022-09-30T19:08:21.609Z,1.00
2022-09-30T19:10:51.085Z,1.00
2022-09-30T19:13:24.046Z,1.00
2022-09-30T19:15:53.428Z,1.00
2022-09-30T19:18:27.125Z,1.00
2022-09-30T19:21:00.503Z,1.00
2022-09-30T19:23:33.584Z,1.00
2022-09-30T19:26:03.150Z,1.00
2022-09-30T19:28:38.415Z,1.00
2022-09-30T19:31:16.115Z,1.00
2022-09-30T19:33:55.980Z,1.00
2022-09-30T19:36:45.949Z,1.00
2022-09-30T19:39:19.039Z,1.00
2022-09-30T19:41:50.769Z,1.00
2022-09-30T19:44:22.027Z,1.00
2022-09-30T19:46:51.984Z,1.00
2022-09-30T19:49:22.179Z,1.00
2022-09-30T19:51:53.031Z,1.00
2022-09-30T19:54:36.431Z,1.00
2022-09-30T19:57:10.339Z,1.00
2022-09-30T20:02:22.368Z,1.00
2022-09-30T20:04:52.140Z,1.00
2022-09-30T20:07:22.774Z,1.00
2022-09-30T20:09:52.922Z,1.00
2022-09-30T20:12:22.586Z,1.00
2022-09-30T20:15:08.936Z,1.00
2022-09-30T20:17:41.392Z,1.00
2022-09-30T20:20:28.988Z,1.00
2022-09-30T20:23:01.934Z,1.00
2022-09-30T20:25:32.552Z,1.00
2022-09-30T20:28:01.964Z,1.00
2022-09-30T20:30:32.642Z,1.00
2022-09-30T20:33:02.553Z,1.00
2022-09-30T20:35:31.611Z,1.00
2022-09-30T20:38:02.416Z,1.00
2022-09-30T20:40:40.317Z,1.00
2022-09-30T20:43:09.462Z,1.00
2022-09-30T20:45:41.707Z,1.00
2022-09-30T20:48:11.024Z,1.00
2022-09-30T20:50:43.660Z,1.00
2022-09-30T20:53:17.220Z,1.00
2022-09-30T20:55:46.909Z,1.00
2022-09-30T20:58:16.517Z,1.00
2022-09-30T21:00:46.036Z,1.00
2022-09-30T21:03:15.769Z,1.00
2022-09-30T21:05:53.105Z,1.00
2022-09-30T21:08:24.453Z,1.00
2022-09-30T21:10:53.840Z,1.00
2022-09-30T21:13:22.579Z,1.00
2022-09-30T21:16:01.010Z,1.00
2022-09-30T21:18:30.433Z,1.00
2022-09-30T21:21:00.302Z,1.00
2022-09-30T21:23:33.659Z,1.00
2022-09-30T21:26:03.604Z,1.00
2022-09-30T21:28:34.127Z,1.00
2022-09-30T21:31:08.376Z,1.00
2022-09-30T21:33:38.116Z,1.00
2022-09-30T21:36:08.074Z,1.00
2022-09-30T21:38:38.945Z,1.00
2022-09-30T21:41:08.817Z,1.00
2022-09-30T21:43:40.481Z,1.00
2022-09-30T21:46:11.798Z,1.00
2022-09-30T21:48:41.361Z,1.00
2022-09-30T21:51:11.056Z,1.00
2022-09-30T21:53:43.447Z,1.00
2022-09-30T21:56:14.918Z,1.00
2022-09-30T21:58:44.166Z,1.00
2022-09-30T22:04:15.716Z,1.00
2022-09-30T22:06:45.816Z,1.00
2022-09-30T22:09:18.396Z,1.00
2022-09-30T22:11:48.330Z,1.00
2022-09-30T22:14:18.362Z,1.00
2022-09-30T22:16:47.980Z,1.00
2022-09-30T22:19:18.276Z,1.00
2022-09-30T22:21:48.479Z,1.00
2022-09-30T22:24:20.209Z,1.00
2022-09-30T22:26:49.857Z,1.00
2022-09-30T22:29:20.372Z,1.00
2022-09-30T22:31:49.771Z,1.00
2022-09-30T22:34:36.573Z,1.00
2022-09-30T22:37:23.316Z,1.00
2022-09-30T22:40:00.626Z,1.00
2022-09-30T22:42:31.984Z,1.00
2022-09-30T22:45:01.896Z,1.00
2022-09-30T22:47:31.460Z,1.00
2022-09-30T22:50:00.995Z,1.00
2022-09-30T22:52:30.600Z,1.00
2022-09-30T22:55:04.780Z,1.00
2022-09-30T22:57:35.740Z,1.00
2022-09-30T23:00:06.421Z,1.00
2022-09-30T23:05:46.693Z,1.00
2022-09-30T23:08:15.868Z,1.00
2022-09-30T23:10:51.398Z,1.00
2022-09-30T23:13:21.012Z,1.00
2022-09-30T23:15:50.940Z,1.00
2022-09-30T23:18:19.708Z,1.00
2022-09-30T23:20:56.556Z,1.00
2022-09-30T23:23:26.024Z,1.00
2022-09-30T23:26:05.412Z,1.00
2022-09-30T23:28:35.433Z,1.00
2022-09-30T23:31:06.649Z,1.00
2022-09-30T23:33:53.272Z,1.00
2022-09-30T23:36:29.782Z,1.00
2022-09-30T23:39:03.957Z,1.00
2022-09-30T23:41:37.751Z,1.00
2022-09-30T23:44:07.003Z,1.00
2022-09-30T23:46:35.784Z,1.00
2022-09-30T23:49:04.665Z,1.00
2022-09-30T23:51:34.754Z,1.00
2022-09-30T23:54:03.867Z,1.00
2022-09-30T23:56:34.602Z,1.00
2022-09-30T23:59:15.630Z,1.00
